events-overview

Kinetic Sprint

 

Overall Women

Lake Anna State Park-Spotsylvania, VA 4/22/2007 11:00AM

** Results are for the private use of participants and are the Intellectual Property of Set Up Events. Unauthorized use of these results is prohibited.

Place Age Cat. NAME CITY/STATE Rank SWIM Rank T1 Rank BIKE Rank T2 Rank RUN PENALTY TIME DQ
137EFALICIA PARRDURHAM NC500:10:32500:01:30100:45:55700:00:49200:20:49 01:19:33 
229EFKRISTA SCHULTZTOWSON MD1200:11:10900:01:39300:48:121100:00:51900:22:23 01:24:13 
342 CONNIE PETERSONHARRISONBURG VA700:10:483100:02:03200:47:263900:01:121300:22:52 01:24:20 
435EFSHANNON SUMMERLINROANOKE VA200:10:13400:01:241300:51:551000:00:50400:21:22 01:25:42 
536 MONICA ROBBERSARLINGTON VA1900:11:48800:01:39500:49:133000:01:091000:22:30 01:26:16 
627 ERIN BURLOVICHCHEVY CHASE MD800:10:571600:01:512300:53:18300:00:43300:20:55 01:27:42 
738 JULIE GIBBONSFAIRFAX VA4800:13:034400:02:12400:48:422200:01:011200:22:47 01:27:44 
829 KATE MURRAYSTAFFORD VA2500:12:06600:01:37700:50:28500:00:461700:23:21 01:28:15 
949EFDEBI BERNARDESKING GEORGE VA1400:11:192300:01:571900:53:021900:01:00500:21:46 01:29:00 
1044 HEIDI SEIBERLICHHATBORO PA2400:12:021100:01:48800:51:112100:01:001900:23:29 01:29:29 
1135 CHRISTINA MEYERMCGAHEYSVILLE VA6200:13:43700:01:37600:49:243500:01:112500:24:02 01:29:55 
1230 DANIELLE TINDERBARBOURSVILLE VA2700:12:182900:02:021100:51:52800:00:502300:23:47 01:30:47 
1337 CHRISTINA KICHULASILVER SPRING MD4300:12:553800:02:07900:51:192300:01:022200:23:45 01:31:07 
1443 JANIE LANGFORDMONTCLAIR VA3700:12:501800:01:521800:52:471800:00:591100:22:44 01:31:10 
1542 LAURA JONESCHARLOTTESVILLE VA3000:12:231000:01:452100:53:066100:01:211400:22:56 01:31:29 
1633 REBECCA LOWEVIRGINIA BEACH VA3600:12:492200:01:561200:51:521600:00:572600:24:25 01:31:58 
1730 KATHY LETTBURKE VA3300:12:444900:02:222700:53:417600:01:29600:21:46 01:32:00 
1826 CLAIRE LEDERMANCOLUMBIA MD100:10:115100:02:224900:56:232500:01:05800:22:17 01:32:16 
1941 LIBBY BLANKENSHIPROANOKE VA1300:11:141400:01:492800:53:431700:00:582800:24:44 01:32:26 
2029 CASSIE TROTTERWASHINGTON DC1700:11:245000:02:223200:54:134100:01:132000:23:35 01:32:45 
2134 SARA SANTOSKIVIRGINIA BEACH VA4200:12:554000:02:091400:52:021200:00:533800:25:28 01:33:23 
2231 KELLY GREENWASHINGTON DC2800:12:184600:02:164200:55:454900:01:16700:21:56 01:33:29 
2341 MARY LYNN HANSENWOODSTOCK MD8000:14:433200:02:032600:53:402700:01:061500:22:57 01:34:28 
2445 JOANNA SCHMICKELARLINGTON VA9100:15:074800:02:211500:52:247000:01:272100:23:36 01:34:54 
2541 PAIGE DILLONROUND HILL VA3200:12:416900:02:482400:53:222800:01:073700:25:26 01:35:22 
2626 MELANIE YUARLINGTON VA1500:11:204200:02:104800:56:11100:00:353500:25:23 01:35:37Y
2735 NICOLE SHUEWASHINGTON DC7700:14:251500:01:501700:52:421300:00:564300:25:53 01:35:44 
2834 JENNIFER DUNNLEESBURG VA2200:11:595700:02:402500:53:256300:01:224800:26:22 01:35:45 
2924 NICOLE SPARKSARLINGTON VA900:10:586300:02:455100:56:297700:01:293100:24:54 01:36:34 
3039 TRACY WEBSTERBLUEMONT VA8300:14:461900:01:534000:55:272900:01:081800:23:28 01:36:40 
PlaceAgeCat.NAMECITY/STATERankSWIMRankT1RankBIKERankT2RankRUNPENALTYTIMEDQ
3129 CHRISTIANA FOGGGERMANTOWN MD1000:10:58200:01:226100:58:276800:01:263000:24:51 01:37:03Y
3243 KIMBERLEY KRUSEARLINGTON VA8200:14:431700:01:512000:53:069100:01:354600:26:12 01:37:25 
3330 NICOLE WEIDENSAULLOCUST GROVE VA6700:13:494300:02:123000:53:5310000:01:415200:26:34 01:38:06 
3429 CAROLYN HARRISARLINGTON VA1800:11:312500:01:581000:51:371500:00:5711300:32:13 01:38:13 
3559 MARIE DEANDOYLESTOWN PA6500:13:465800:02:421600:52:381400:00:576500:28:18 01:38:20 
3644 KIM CUMBIEHARPERS FERRY WV5600:13:312800:02:003500:54:536700:01:245300:26:36 01:38:21 
3737 COLETTE BOULINSILVER SPRING MD7200:14:063000:02:034300:55:498800:01:343300:25:12 01:38:42Y
3830 ROBIN SCHROYERPALMYRA VA3400:12:476400:02:453900:55:263100:01:105800:27:09 01:39:15 
3942 JILL THORPEWASHINGTON DC5900:13:405900:02:434700:56:096500:01:244200:25:49 01:39:42 
4025 CHRISTINE MCKENNARESTON VA9700:15:266800:02:473600:55:095600:01:193400:25:21 01:40:00 
4141 DIANA LOHMEYERVIENNA VA6000:13:412100:01:566700:59:066900:01:262400:24:00 01:40:08 
4225 KATE KELLYWASHINGTON DC8400:14:483700:02:075600:56:547300:01:283200:25:10 01:40:26 
4327 ROBYN SCRAFFORDARLINGTON VA4000:12:5110500:03:435500:56:5412000:02:023900:25:30 01:40:58 
4428 VALERIE OSWALDCHARLOTTESVILLE VA400:10:213900:02:086400:59:034500:01:156600:28:22 01:41:07 
4545 BETH WEISBRODRICHMOND VA6100:13:418500:03:105800:57:288400:01:323600:25:25 01:41:15 
4650 JULIA PECKCULPEPER VA8500:14:482700:01:595900:57:453300:01:104000:25:36 01:41:17 
4724 LAUREN TAYLORWASHINGTON DC2100:11:597100:02:524600:56:068000:01:307700:29:01 01:41:24 
4824 KARI BEHNKEARLINGTON VA12500:17:134700:02:202900:53:4511300:01:575500:26:40 01:41:52 
4924 MEG STURGESFAIRFAX VA12200:17:028100:03:065700:57:129700:01:401600:23:01 01:41:59 
5048 EVA VAN STRATUMASTON PA11700:16:487600:02:573300:54:154400:01:145700:26:51 01:42:04 
5135AMICHELE BULLELDERSBURG MD10100:15:456100:02:443100:54:0511000:01:496300:28:01 01:42:21 
5237 KELLY APPLERSILVER SPRING MD1600:11:229100:03:214100:55:438700:01:349700:30:56 01:42:54 
5337 LISA HARFOOTWASHINGTON DC2000:11:525200:02:257701:00:3211600:02:015100:26:31 01:43:19Y
5427EFJESSICA FOSCHIDURHAM NC600:10:443600:02:067101:00:04900:00:508400:29:38 01:43:20 
5530 CAROLYN SCRAFFORDARLINGTON VA7500:14:206000:02:435000:56:2613100:02:076400:28:14 01:43:48 
5633 SHANNON PRENDERGASTOAKTON VA300:10:179000:03:155300:56:436400:01:2211600:32:25 01:44:00 
5739 ELIZABETH STERLINGOLNEY MD5700:13:327400:02:574400:55:572600:01:059200:30:34 01:44:02 
5832 CARRIE APPLECAMBRIDGE MD12700:17:327700:03:022200:53:0712100:02:037000:28:36 01:44:18 
5938 KATE CHESLEYFREDERICKSBURG VA12100:16:578300:03:096000:58:035100:01:174500:26:03 01:45:27 
6028ATRISHA MOORESALISBURY NC3800:12:509400:03:254500:55:585000:01:1611000:32:07 01:45:35 
6122 JESSICA ARMSFOREST HILL MD11200:16:3211300:03:476900:59:432400:01:022700:24:40 01:45:43 
PlaceAgeCat.NAMECITY/STATERankSWIMRankT1RankBIKERankT2RankRUNPENALTYTIMEDQ
6217 MEGHAN LOUKVIRGINIA BEACH VA1100:11:062000:01:5612001:04:39600:00:486100:27:26 01:45:53 
6325 ALICIA ANDREWSHERNDON VA10600:15:589600:03:276300:58:5012900:02:074100:25:44 01:46:04 
6451 KATHERINE DE JONGFAIRFAX VA10800:16:098900:03:153700:55:1715400:02:407400:28:48 01:46:08 
6528 BRITTA SCHUMANNFALLS CHURCH VA2600:12:177500:02:577301:00:174300:01:148200:29:31 01:46:14 
6623 JACKIE SERPICO 4100:12:546700:02:468201:00:495900:01:206900:28:36 01:46:22 
6742 TERESA CHRISTIANFREDERICKSBURG VA9200:15:126200:02:446800:59:079900:01:406200:27:58 01:46:40 
6824 ELLEN TANIWASHINGTON DC12000:16:5612000:03:536500:59:0312600:02:062900:24:46 01:46:42 
6927 MEGHAN O'CONNORWASHINGTON D.C. DC9600:15:2213400:04:276200:58:3713500:02:094700:26:13 01:46:47 
7036 SARAH RODRIGUEZWHEATON MD9800:15:3510700:03:447201:00:095200:01:174900:26:23 01:47:05 
7131 SUE REINCKECAMBRIDGE MD6900:13:524100:02:095200:56:429800:01:4011900:32:52 01:47:13Y
7226 TORI STEENASHBURN VA3100:12:318400:03:109301:02:114200:01:148100:29:14 01:48:17 
7329 TORREY HILLINGERARLINGTON VA10500:15:577200:02:525400:56:4514800:02:219600:30:54 01:48:46 
7432 JESSICA ADELMANARLINGTON VA5200:13:1911600:03:488601:01:1810400:01:447300:28:46 01:48:53 
7532 ANDREA NAPALOWSKIRICHMOND VA13100:17:519700:03:283400:54:438200:01:3110100:31:26 01:48:56 
7650 C. IRENE ULTEEFREDERICKSBURG VA4700:13:022400:01:579201:01:517100:01:279300:30:42 01:48:58Y
7731 SARAH DELIAARLINGTON VA12600:17:2912900:04:1213901:08:1712400:02:04100:17:02 01:49:02 
7836 TATJANA VICHNEVSKYWASHINGTON DC10200:15:458000:03:048801:01:236600:01:244400:25:5600:02:0001:49:29 
7930 LINDSAY ZARWELLWASHINGTON DC9500:15:1810100:03:3710101:02:4810600:01:465000:26:31 01:49:58 
8037 ALEXANDRA KLAFFLEESBURG VA9400:15:1815200:04:557000:59:578300:01:327100:28:40 01:50:19 
8135 VALERIE BARLOWEWARRENTON VA9000:15:0713600:04:289701:02:242000:01:006000:27:22 01:50:19 
8243 HALEH PETERSONFALLS CHURCH VA9900:15:375400:02:277901:00:414600:01:159100:30:31 01:50:29 
8328 MEGHAN STASZWASHINGTON DC11800:16:4813200:04:267601:00:3213800:02:115600:26:49 01:50:44 
8442 MARY MCCULLOUGHFAIRFAX VA6300:13:4412400:04:0410901:03:4015800:03:035400:26:39 01:51:08 
8539 DONNA MARZOWASHINGTON DC13000:17:4910000:03:316600:59:0510200:01:428000:29:11 01:51:15 
8652 CATHERINE LEECULPEPER VA7400:14:187800:03:027801:00:378100:01:3010700:31:56 01:51:21 
8727 ELIZABETH ROONEYBOLLING AFB DC4900:13:061300:01:4910601:03:128900:01:3410500:31:43 01:51:21Y
8827AKRISTIN CRAIGTAKOMA PARK MD7900:14:309300:03:2410201:02:5611900:02:017600:28:58 01:51:48 
8921 BECKY HARRISLEXINGTON VA5100:13:1311200:03:479101:01:4113900:02:1110000:31:18 01:52:08 
9035 CAROLE COCKERILLVIENNA VA2300:12:014500:02:1512701:05:4414500:02:178600:29:52 01:52:09Y
9130 HAYES FERGUSONRALEIGH NC5800:13:373300:02:0412201:04:5611400:01:578800:30:03 01:52:35Y
9233 DAFNA GOLDNEW YORK NY14600:18:595600:02:367501:00:289300:01:358300:29:33 01:53:09 
PlaceAgeCat.NAMECITY/STATERankSWIMRankT1RankBIKERankT2RankRUNPENALTYTIMEDQ
9331 ALISSA HERKOGLEN ALLEN VA14400:18:5610400:03:423800:55:233800:01:1213000:34:08 01:53:18 
9438 MARY PICARDHOLLYWOOD MD11300:16:339800:03:299501:02:147200:01:288700:29:53 01:53:35 
9530 JOY MARRACCINIARLINGTON VA5400:13:2515100:04:5310001:02:4311200:01:569500:30:53 01:53:48 
9639 DOTTI PORTERWILLIAMSBURG VA5000:13:071200:01:4810701:03:3312700:02:0612800:34:04 01:54:36Y
9724 DANA CONROYWASHINGTON DC2900:12:2011100:03:4512501:05:346200:01:2110400:31:41 01:54:40 
9828 KRISTINA KLEMPARLINGTON VA8600:14:506500:02:458001:00:459500:01:3913300:34:44 01:54:40 
9925 LEIGH-ANNE ALLENBLACKSBURG VA13600:18:1511500:03:478401:01:15     01:54:41 
10030 SHANNON ICEFALLS CHURCH VA5500:13:298700:03:1111801:04:199200:01:3511100:32:11 01:54:43 
10128 KENDRA CHAMBERSARLINGTON VA10400:15:5214400:04:4110301:03:0613600:02:107900:29:09 01:54:57 
10236 SHANNON HICOKBURKE VA8900:15:0211800:03:4910401:03:0714400:02:179800:31:10 01:55:23 
10335 TAMMY DEUSTERSILVER SPRING MD8800:14:5511900:03:5010801:03:3411800:02:019900:31:17 01:55:35 
10432 MONICA TRUCCOARLINGTON VA10900:16:1912100:03:578501:01:1711500:01:5811500:32:17 01:55:45 
10527 MEGAN BENARICKSPRINGFIELD VA4600:12:593400:02:059901:02:349600:01:3914000:36:34 01:55:50Y
10625 LESLIE MOATZRICHMOND VA4400:12:555500:02:3613401:07:055700:01:1911400:32:14 01:56:07 
10732 TRACEY KLOESLEESBURG VA12400:17:1310600:03:4312301:05:169000:01:346700:28:24 01:56:09 
10835 TAMARA MCFARRENARLINGTON VA13500:18:022600:01:588901:01:333600:01:1213200:34:29 01:57:11 
10938 ROCHELLE TRAUPELEESBURG VA11900:16:507000:02:5111901:04:3214200:02:179400:30:52 01:57:20 
11027 ELIZABETH KERINEDGEWATER MD13200:17:526600:02:459601:02:175400:01:1912300:33:27 01:57:38 
11127 ELIZABETH LOKBURKE VA16000:22:109200:03:238701:01:1813000:02:077200:28:42 01:57:39 
11229AKARA CALVERTWASHINGTON DC13300:17:5310300:03:3912401:05:165300:01:178500:29:38 01:57:41 
11324 JENNIFER RICERICHMOND PA7600:14:238200:03:0814001:08:3010700:01:478900:30:11 01:57:57 
11424 JEN LEEDSFALLS CHURCH VA11400:16:3411700:03:4912101:04:47200:00:4210900:32:07 01:57:57 
11529 TRACY SLAGERBLACKSBURG VA13400:18:0110800:03:447401:00:235500:01:1913400:34:48 01:58:13 
11637 TRACY HOLCOMBBURKE VA11600:16:4713800:04:319401:02:1316100:03:1610800:32:00 01:58:45 
11728 JULIA KOSTANRICHMOND VA14700:19:0415900:05:3211501:04:0015900:03:065900:27:14 01:58:53 
11836 MAGGIE RAYWOODBRIDGE VA15000:19:167900:03:0311201:03:497800:01:2910200:31:38 01:59:13 
11934 MARLENE TOMASZKIEWICZARLINGTON VA12300:17:077300:02:538101:00:4814100:02:1613900:36:24 01:59:26 
12029 SHANNON FENIXASHBURN VA7000:13:5515000:04:5011601:04:078600:01:3413600:35:31 01:59:55 
12126 MEGHAN MURPHYCROFTON MD7100:14:0014700:04:4711401:03:5710100:01:4113700:35:32 01:59:55 
12241 KRISTY KENNEDYWASHINGTON DC13800:18:1716200:05:5011101:03:4915700:02:587800:29:04 01:59:57 
12348 CHERYL BRUNERWASHINGTON DC5300:13:2112200:03:5811701:04:1613400:02:0914200:36:55 02:00:36 
PlaceAgeCat.NAMECITY/STATERankSWIMRankT1RankBIKERankT2RankRUNPENALTYTIMEDQ
12451 DEBORAH LOWRYRICHMOND VA15700:21:3614100:04:349001:01:37400:00:4412000:32:57 02:01:26 
12552 JOANNE HAMILTONFREDERICK MD16200:22:5112800:04:118301:00:5015100:02:2810300:31:39 02:01:58 
12634 KERENSA HADLEYFAIRFAX VA9300:15:1413100:04:2413501:07:337900:01:2912100:33:26 02:02:04 
12736 TRACY KAHNEYINDIAN HEAD MD15800:21:5915800:05:2710501:03:0812200:02:049000:30:23 02:02:59 
12833 HEATHER HILLSWOODBRIDGE VA6400:13:4615300:04:5712601:05:384800:01:1514500:37:31 02:03:04 
12943 KRISTY BENTON-GROVERALEXANDRIA VA15300:20:0814000:04:3213701:07:4112300:02:047500:28:51 02:03:15 
13029 ERIN DILLONWASHINGTON DC10300:15:4916100:05:4813301:06:516000:01:2012600:33:36 02:03:21 
13129 TRISH FRITZFALLS CHURCH VA           02:03:45 
13247 JEANINE MURPHY-MORRISELLICOTT CITY MD14900:19:1514600:04:4611301:03:5412500:02:0513100:34:09 02:04:07 
13334 SANDY WEBBGRASONVILLE MD15400:20:2612500:04:089801:02:2813300:02:0913500:35:05 02:04:14 
13434AERIN MURPHYGLEN ALLEN VA10000:15:443500:02:0613001:06:154000:01:1214900:39:17 02:04:32 
13540 GOLI TRUMPFAIRFAX VA14500:18:5713300:04:2712801:06:0814700:02:1912200:33:27 02:05:17 
13635 LISA GOINESCOLUMBIA MD3900:12:5115500:05:0314901:12:365800:01:2012700:33:50 02:05:37 
13747 KATE GRANTMIDLOTHIAN VA12800:17:348600:03:1013201:06:4010300:01:4414100:36:49 02:05:55 
13852 LISA CULVERARLINGTON VA14100:18:3315400:05:0314101:08:347400:01:2811800:32:51 02:06:27 
13946 MARY BETH CORRIGANALEXANDRIA VA11000:16:2316000:05:4214401:10:1415500:02:4610600:31:53 02:06:56 
14035 LORI COATESARLINGTON VA4500:12:5814900:04:4815101:12:5715600:02:4912400:33:30 02:07:00 
14134 JILL HUTCHINGSWASHINGTON DC13700:18:1714200:04:3415501:14:298500:01:336800:28:31 02:07:24 
14228AKERI VRANCIKWASHINGTON DC11100:16:2812300:04:0313101:06:199400:01:3714800:39:03 02:07:28 
14338 ROBIN PURVISFREDERICKSBURG VA14000:18:2714300:04:4012901:06:1410800:01:4714300:37:03 02:08:09 
14434 MANUELA GOBRECHTBETHESDA MD12900:17:4616300:05:5213601:07:3316000:03:0812900:34:04 02:08:21 
14528 HOLLY BIGLOWWASHINGTON DC10700:16:0312600:04:0915601:14:5110500:01:4611200:32:12 02:08:59 
14635 JENNIFER PIORKODAMASCUS MD6800:13:515300:02:2715201:13:2013700:02:1014400:37:24 02:09:10Y
14756 DOROTHY RICHMANAKIN SABOT VA15200:19:298800:03:1311001:03:4613200:02:0715400:41:22 02:09:57 
14838 JANET BUMPASWASHINGTON DC7800:14:2713500:04:2815801:17:053700:01:1212500:33:33 02:10:43 
14928 KATIE MCMAHONARLINGTON VA6600:13:47300:01:2316301:19:413200:01:1013800:35:40 02:11:38Y
15042 JODI HOPE ANDERSONROCKVILLE MD7300:14:1615700:05:1814601:11:5714300:02:1715500:41:33 02:15:19 
15139AVALERIE DONOHUEARLINGTON VA8700:14:5315600:05:1313801:08:0614900:02:2115800:44:54 02:15:25 
15241 SUSANNE WOODLANSILVER SPRING MD11500:16:3613700:04:2914801:12:0514600:02:1815700:42:27 02:17:54 
15332 CHRISTY MAGEEFALLS CHURCH VA16100:22:4113900:04:3114201:10:033400:01:1115000:39:32 02:17:55 
15438 KERRIE GARLEPPANNANDALE VA15900:22:069900:03:3015401:13:2815200:02:3015100:39:36 02:21:09 
PlaceAgeCat.NAMECITY/STATERankSWIMRankT1RankBIKERankT2RankRUNPENALTYTIMEDQ
15536 ABBY HENDRIXCOLUMBIA MD8100:14:4316400:07:0316201:19:3012800:02:0614600:37:55 02:21:15 
15637AHOLLY GANNOEALEXANDRIA VA16300:24:3812700:04:1114701:11:5811100:01:5115300:40:35 02:23:10 
15739 HALA SALHA FAYYADROCKVILLE MD14300:18:4613000:04:1616401:20:197500:01:2814700:38:36 02:23:24 
15844ALESLIE GRIZZARDBETHESDA MD14800:19:11100:01:1615301:13:224700:01:1516000:48:33 02:23:35Y
15925 STACY LATTIMERALEXANDRIA VA13900:18:2414800:04:4815701:16:3515300:02:3815600:41:39 02:24:02 
16031 JENNIFER STEWARTFAIRFAX VA14200:18:3414500:04:4215001:12:4411700:02:0115900:46:44 02:24:43 
16136 LISA WALLENDA PICARDOAKTON VA15600:21:0710200:03:3715901:19:1015000:02:2315200:40:33 02:26:49 
16234 LAURA ZWEIGWASHINGTON DC16500:33:5911000:03:4416101:19:2614000:02:1111700:32:45 02:32:03 
16362 CAROLINE STEVENSFAIRFAX VA16400:29:3516500:08:2116501:44:2016300:06:3216100:58:15 03:27:00 
16443 ROSE DOUGHERTYBLUEMONT VA15500:20:4611400:03:4714501:10:4110900:01:48    Y
16534 CINDY JOHANNESSENLA PLATA MD3500:12:479500:03:2514301:10:0916200:03:24     
16638 LOURDES HEREDIAWASHINGTON DC15100:19:1710900:03:4416001:19:1316400:19:39     

** Results are for the private use of participants and are the Intellectual Property of Set Up Events. Unauthorized use of these results is prohibited.